Time;durP1;ratioP1;P1;durP2;ratioP2;P2;SDS_P1;SDS_P2;PMS_P1;PMS_P2;Temp;Humidity;BMP_temperature;BMP_pressure;BME280_temperature;BME280_humidity;BME280_pressure;Samples;Min_cycle;Max_cycle;Signal;HPM_P1;HPM_P2
2022/12/26 00:01:29;;;;;;;11.13;4.75;;;;;;;6.74;61.17;100602.72;3146388;28;20118;-68
2022/12/26 00:03:01;;;;;;;11.13;4.30;;;;;;;7.16;61.39;100678.00;3156728;28;20048;-68
2022/12/26 00:04:32;;;;;;;11.80;4.75;;;;;;;7.15;61.24;100681.44;3157295;28;20104;-68
2022/12/26 00:06:03;;;;;;;10.98;4.82;;;;;;;7.15;61.38;100685.78;3157478;28;20048;-68
2022/12/26 00:07:35;;;;;;;9.60;4.63;;;;;;;7.14;61.46;100697.03;3157426;28;20421;-69
2022/12/26 00:09:07;;;;;;;13.57;5.07;;;;;;;7.07;61.56;100688.50;3157411;28;20113;-69
2022/12/26 00:10:40;;;;;;;12.25;4.95;;;;;;;7.07;61.61;100698.88;3157179;28;20141;-69
2022/12/26 00:12:12;;;;;;;12.85;5.57;;;;;;;7.01;61.99;100692.03;3157222;28;20052;-68
2022/12/26 00:13:43;;;;;;;11.32;5.13;;;;;;;6.89;61.94;100688.78;3152805;28;20075;-68
2022/12/26 00:15:15;;;;;;;10.98;4.63;;;;;;;6.86;61.97;100697.44;3157231;28;20071;-68
2022/12/26 00:16:47;;;;;;;11.93;5.32;;;;;;;6.87;62.25;100696.59;3153695;28;20048;-69
2022/12/26 00:18:18;;;;;;;12.40;5.82;;;;;;;6.83;62.26;100695.78;3157070;28;20121;-69
2022/12/26 00:19:50;;;;;;;12.38;4.70;;;;;;;6.74;62.31;100685.53;3150186;28;20048;-68
2022/12/26 00:21:22;;;;;;;13.70;4.88;;;;;;;6.81;62.34;100704.44;3157123;28;20056;-69
2022/12/26 00:22:54;;;;;;;10.23;4.40;;;;;;;6.72;62.33;100697.69;3157164;28;20470;-69
2022/12/26 00:24:26;;;;;;;10.70;4.68;;;;;;;6.75;62.53;100701.97;3156906;28;20117;-69
2022/12/26 00:26:03;;;;;;;13.82;5.40;;;;;;;6.76;62.47;100720.03;3144892;28;20539;-69
2022/12/26 00:27:34;;;;;;;12.48;4.90;;;;;;;6.71;62.50;100708.03;3152467;28;20040;-69
2022/12/26 00:29:06;;;;;;;10.55;5.28;;;;;;;6.74;62.46;100714.03;3157189;28;20052;-69
2022/12/26 00:30:38;;;;;;;12.35;4.93;;;;;;;6.78;62.43;100722.63;3156943;28;20112;-68
2022/12/26 00:32:10;;;;;;;13.52;5.35;;;;;;;6.69;62.55;100709.81;3156085;28;20048;-69
2022/12/26 00:33:41;;;;;;;11.68;4.72;;;;;;;6.72;62.84;100720.13;3155056;28;20060;-68
2022/12/26 00:35:13;;;;;;;14.45;5.15;;;;;;;6.62;62.83;100724.56;3156732;28;20044;-69
2022/12/26 00:36:45;;;;;;;14.52;5.60;;;;;;;6.58;63.00;100728.06;3156977;28;20051;-68
2022/12/26 00:38:15;;;;;;;13.60;5.72;;;;;;;6.38;62.92;100700.72;3157013;28;20505;-69
2022/12/26 00:39:47;;;;;;;11.30;5.35;;;;;;;6.52;62.98;100728.16;3157171;28;20486;-69
2022/12/26 00:41:21;;;;;;;16.48;5.53;;;;;;;6.51;63.04;100723.88;3156777;28;20432;-69
2022/12/26 00:42:53;;;;;;;11.55;5.53;;;;;;;6.42;63.23;100714.50;3152694;28;20068;-67
2022/12/26 00:44:25;;;;;;;14.00;6.07;;;;;;;6.45;63.28;100719.63;3156601;28;20044;-67
2022/12/26 00:45:56;;;;;;;12.77;5.10;;;;;;;6.45;63.32;100722.22;3156714;28;20062;-68
2022/12/26 00:47:27;;;;;;;12.82;5.43;;;;;;;6.45;63.42;100718.75;3156956;28;20044;-69
2022/12/26 00:49:00;;;;;;;17.02;7.80;;;;;;;6.40;63.27;100721.41;3156818;28;20066;-68
2022/12/26 00:50:30;;;;;;;16.48;7.32;;;;;;;6.45;63.47;100729.97;3157143;28;20048;-67
2022/12/26 00:52:02;;;;;;;13.50;5.95;;;;;;;5.97;63.54;100654.72;3148250;28;20052;-67
2022/12/26 00:53:33;;;;;;;13.90;5.05;;;;;;;6.41;63.70;100735.19;3156732;28;20120;-68
2022/12/26 00:55:06;;;;;;;14.05;5.45;;;;;;;6.35;63.91;100741.31;3157100;28;20531;-67
2022/12/26 00:56:39;;;;;;;18.20;6.03;;;;;;;6.18;64.17;100731.16;3153503;28;20044;-70
2022/12/26 00:58:10;;;;;;;15.43;6.60;;;;;;;6.08;64.44;100729.56;3156869;28;20301;-68
2022/12/26 00:59:42;;;;;;;15.23;5.40;;;;;;;5.97;64.55;100713.31;3145241;28;20113;-68
2022/12/26 01:01:16;;;;;;;13.40;6.13;;;;;;;6.04;64.56;100728.75;3155248;28;20099;-69
2022/12/26 01:02:47;;;;;;;14.05;6.57;;;;;;;5.97;64.56;100714.19;3156963;28;20052;-68
2022/12/26 01:04:19;;;;;;;12.93;5.90;;;;;;;5.99;64.64;100712.44;3156833;28;20052;-68
2022/12/26 01:05:51;;;;;;;17.23;6.20;;;;;;;6.00;64.70;100714.13;3157010;28;20579;-70
2022/12/26 01:07:22;;;;;;;14.43;6.85;;;;;;;5.95;64.72;100710.78;3156934;28;20048;-68
2022/12/26 01:08:54;;;;;;;20.45;7.00;;;;;;;5.95;64.71;100721.13;3157094;28;20060;-70
2022/12/26 01:10:26;;;;;;;17.58;6.90;;;;;;;5.99;64.94;100727.09;3156939;28;20044;-67
2022/12/26 01:11:59;;;;;;;14.70;6.47;;;;;;;5.91;65.06;100716.81;3152448;28;20066;-68
2022/12/26 01:13:30;;;;;;;14.75;5.70;;;;;;;5.79;65.17;100710.03;3157022;28;20176;-69
2022/12/26 01:15:02;;;;;;;13.75;5.65;;;;;;;5.86;65.21;100716.88;3156676;28;20617;-68
2022/12/26 01:16:34;;;;;;;16.85;6.55;;;;;;;5.78;65.35;100703.16;3153102;28;20048;-68
2022/12/26 01:18:05;;;;;;;12.95;5.95;;;;;;;5.87;65.10;100720.31;3157104;28;20044;-68
2022/12/26 01:19:37;;;;;;;16.45;7.03;;;;;;;5.73;65.20;100693.75;3149908;28;20055;-68
2022/12/26 01:21:09;;;;;;;12.43;5.45;;;;;;;5.87;65.13;100721.16;3154404;28;20045;-68
2022/12/26 01:22:41;;;;;;;13.45;5.88;;;;;;;5.87;65.33;100725.47;3156709;28;20059;-68
2022/12/26 01:24:13;;;;;;;13.77;6.07;;;;;;;5.20;65.13;100624.53;3157149;28;20679;-68
2022/12/26 01:25:45;;;;;;;12.40;5.95;;;;;;;5.77;65.29;100723.84;3153177;28;20047;-68
2022/12/26 01:27:17;;;;;;;11.48;5.93;;;;;;;5.84;65.26;100739.28;3155961;28;20048;-68
2022/12/26 01:28:49;;;;;;;12.00;5.85;;;;;;;5.83;65.36;100747.06;3152723;28;20053;-69
2022/12/26 01:30:21;;;;;;;15.80;6.05;;;;;;;5.81;65.33;100743.63;3154850;28;20059;-68
2022/12/26 01:31:52;;;;;;;12.98;6.32;;;;;;;5.76;65.35;100750.56;3156414;28;20048;-68
2022/12/26 01:33:24;;;;;;;14.98;6.25;;;;;;;5.76;65.52;100748.00;3156549;28;20056;-68
2022/12/26 01:34:55;;;;;;;13.35;5.80;;;;;;;5.74;65.53;100752.31;3156763;28;20056;-67
2022/12/26 01:36:27;;;;;;;18.55;6.15;;;;;;;5.56;65.54;100710.31;3156915;28;20044;-68
2022/12/26 01:37:58;;;;;;;14.40;6.43;;;;;;;5.70;65.57;100744.59;3156761;28;20071;-68
2022/12/26 01:39:30;;;;;;;13.75;6.43;;;;;;;5.70;65.45;100746.31;3151335;28;20395;-68
2022/12/26 01:41:16;;;;;;;15.85;7.10;;;;;;;5.68;65.65;100745.50;3148988;28;20451;-68
2022/12/26 01:42:49;;;;;;;16.15;6.88;;;;;;;5.66;65.55;100742.06;3156562;28;20523;-68
2022/12/26 01:44:54;;;;;;;15.65;7.25;;;;;;;5.22;65.44;100679.63;3156764;28;20040;-68
2022/12/26 01:46:33;;;;;;;18.08;6.97;;;;;;;5.58;65.64;100744.72;3149396;28;20071;-68
2022/12/26 01:48:15;;;;;;;16.15;7.25;;;;;;;5.58;65.63;100746.44;3156425;28;20079;-68
2022/12/26 01:49:49;;;;;;;20.15;6.82;;;;;;;5.57;65.76;100755.94;3156883;28;20409;-68
2022/12/26 01:51:26;;;;;;;14.18;7.00;;;;;;;5.58;65.79;100754.19;3151996;28;20048;-70
2022/12/26 01:53:01;;;;;;;16.10;6.65;;;;;;;5.41;65.73;100718.19;3153349;28;20059;-67
2022/12/26 01:54:37;;;;;;;22.35;6.75;;;;;;;5.43;65.96;100731.94;3156416;28;20594;-68
2022/12/26 01:56:13;;;;;;;17.52;7.55;;;;;;;5.56;65.80;100758.50;3152956;28;20044;-68
2022/12/26 01:57:53;;;;;;;16.42;6.88;;;;;;;5.54;65.91;100753.38;3153069;28;20060;-69
2022/12/26 01:59:29;;;;;;;13.80;6.75;;;;;;;5.52;65.96;100754.25;3146145;28;20499;-68
2022/12/26 02:01:03;;;;;;;16.25;6.28;;;;;;;5.52;66.06;100754.25;3144108;28;20049;-68
2022/12/26 02:05:32;;;;;;;20.50;7.30;;;;;;;5.51;66.16;100756.00;3152077;28;20052;-68
2022/12/26 02:06:20;;;;;;;15.13;6.93;;;;;;;5.41;66.12;100747.47;3158520;28;20505;-69
2022/12/26 02:07:52;;;;;;;13.70;6.20;;;;;;;5.43;66.14;100750.88;3149930;28;20044;-68
2022/12/26 02:09:24;;;;;;;21.15;7.28;;;;;;;5.47;66.06;100752.59;3155421;28;20426;-68
2022/12/26 02:11:04;;;;;;;21.50;7.22;;;;;;;5.02;66.08;100684.09;3156781;28;20695;-68
2022/12/26 02:12:36;;;;;;;18.48;7.47;;;;;;;5.47;66.21;100746.53;3159079;28;20063;-70
2022/12/26 02:14:10;;;;;;;14.68;6.88;;;;;;;5.01;66.10;100683.25;3158558;28;20414;-69
2022/12/26 02:15:41;;;;;;;15.60;7.15;;;;;;;5.45;66.19;100756.03;3158623;28;20043;-68
2022/12/26 02:17:13;;;;;;;15.93;8.00;;;;;;;5.44;66.14;100765.53;3152444;28;20067;-67
2022/12/26 02:18:45;;;;;;;15.30;7.25;;;;;;;5.43;66.33;100773.28;3153085;28;20120;-69
2022/12/26 02:20:19;;;;;;;15.55;6.88;;;;;;;5.40;66.43;100760.38;3153492;28;20059;-70
2022/12/26 02:22:18;;;;;;;13.88;6.95;;;;;;;5.42;66.32;100779.31;3158720;28;20055;-69
2022/12/26 02:24:09;;;;;;;15.90;7.57;;;;;;;5.38;66.32;100775.03;3157743;28;20052;-68
2022/12/26 02:26:11;;;;;;;18.60;7.18;;;;;;;5.33;66.31;100756.16;3148856;28;20151;-68
2022/12/26 02:28:14;;;;;;;18.45;7.53;;;;;;;5.35;66.38;100759.56;3147572;28;20080;-68
2022/12/26 02:30:13;;;;;;;19.42;7.63;;;;;;;4.88;66.47;100691.09;3158434;28;20453;-68
2022/12/26 02:31:56;;;;;;;15.65;7.15;;;;;;;5.30;66.68;100751.88;3158182;28;20103;-67
2022/12/26 02:33:45;;;;;;;19.45;7.93;;;;;;;5.30;66.40;100756.19;3158670;28;20060;-67
2022/12/26 02:35:30;;;;;;;20.52;7.38;;;;;;;5.30;66.56;100761.34;3158576;28;20386;-67
2022/12/26 02:37:17;;;;;;;19.67;7.95;;;;;;;4.85;66.62;100696.28;3158190;28;20048;-68
2022/12/26 02:39:05;;;;;;;16.52;7.75;;;;;;;5.22;66.67;100758.81;3137340;28;20060;-68
2022/12/26 02:40:50;;;;;;;19.63;8.32;;;;;;;5.25;66.73;100767.38;3135095;28;20094;-68
2022/12/26 02:42:35;;;;;;;21.33;7.65;;;;;;;5.23;66.71;100757.94;3158564;28;20052;-68
2022/12/26 02:48:09;;;;;;;23.85;7.20;;;;;;;5.15;66.86;100762.31;3158482;28;20512;-69
2022/12/26 03:13:15;;;;;;;26.20;8.55;;;;;;;5.01;67.38;100749.50;3158042;28;20072;-69
2022/12/26 03:14:51;;;;;;;21.83;8.52;;;;;;;4.08;67.50;100596.19;3148343;28;20514;-68
2022/12/26 03:18:14;;;;;;;24.15;9.10;;;;;;;4.94;67.59;100742.66;3158129;28;20398;-69
2022/12/26 03:20:01;;;;;;;21.70;9.05;;;;;;;4.99;67.58;100746.06;3151834;28;20044;-68
2022/12/26 03:21:37;;;;;;;26.83;9.52;;;;;;;4.98;67.59;100739.22;3156698;28;20048;-68
2022/12/26 03:23:12;;;;;;;21.85;8.52;;;;;;;4.65;67.79;100689.53;3153739;28;20127;-69
2022/12/26 03:26:39;;;;;;;19.48;8.35;;;;;;;4.21;67.46;100620.19;3157796;28;20151;-68
2022/12/26 03:28:10;;;;;;;21.65;8.90;;;;;;;4.99;67.61;100741.75;3157976;28;20040;-70
2022/12/26 03:31:34;;;;;;;20.30;7.95;;;;;;;4.96;67.70;100746.94;3140045;28;20805;-70
2022/12/26 03:34:16;;;;;;;19.83;8.68;;;;;;;4.92;67.75;100731.50;3157947;28;20052;-70
2022/12/26 03:34:58;;;;;;;20.85;8.10;;;;;;;4.89;67.89;100724.63;3157792;28;20062;-70
2022/12/26 03:36:48;;;;;;;19.05;8.60;;;;;;;4.92;67.71;100736.66;3157696;28;20113;-67
2022/12/26 03:38:25;;;;;;;23.90;8.25;;;;;;;4.90;67.74;100735.81;3152631;28;20052;-67
2022/12/26 04:19:26;;;;;;;22.48;10.98;;;;;;;4.63;68.27;100775.56;3105973;28;20053;-67
2022/12/26 04:41:34;;;;;;;35.03;14.30;;;;;;;4.62;68.21;100784.16;3125859;28;20044;-69
2022/12/26 04:44:03;;;;;;;25.25;10.45;;;;;;;3.58;68.95;100648.78;3157198;28;20048;-68
2022/12/26 04:45:36;;;;;;;28.83;10.48;;;;;;;4.45;68.88;100792.81;3156922;28;20151;-68
2022/12/26 04:47:07;;;;;;;28.20;10.65;;;;;;;4.45;68.87;100795.41;3156755;28;20505;-68
2022/12/26 04:50:32;;;;;;;29.08;10.90;;;;;;;4.37;68.84;100786.84;3151935;28;20041;-68
2022/12/26 04:52:08;;;;;;;23.83;10.85;;;;;;;4.40;68.96;100785.97;3148141;28;20060;-68
2022/12/26 04:53:40;;;;;;;32.85;11.23;;;;;;;4.44;68.99;100792.84;3156948;28;20052;-68
2022/12/26 04:55:11;;;;;;;23.05;10.65;;;;;;;4.35;69.10;100786.00;3156738;28;20481;-68
2022/12/26 04:56:43;;;;;;;22.95;10.68;;;;;;;4.42;69.10;100795.41;3154070;28;20056;-69
2022/12/26 04:58:23;;;;;;;28.45;11.38;;;;;;;4.37;69.13;100796.28;3132092;28;20068;-69
2022/12/26 04:59:54;;;;;;;24.65;10.82;;;;;;;4.40;69.13;100796.28;3132557;28;20052;-68
2022/12/26 05:10:41;;;;;;;26.88;10.75;;;;;;;4.26;69.82;100822.09;3157148;28;20127;-68
2022/12/26 05:12:13;;;;;;;24.52;10.35;;;;;;;4.24;69.84;100810.97;3156698;28;20075;-68
2022/12/26 05:13:45;;;;;;;25.40;10.70;;;;;;;3.74;69.83;100724.34;3153331;28;20040;-68
2022/12/26 05:15:17;;;;;;;28.35;10.77;;;;;;;4.24;69.88;100814.41;3150700;28;20048;-68
2022/12/26 05:29:37;;;;;;;30.63;13.45;;;;;;;4.24;69.94;100835.03;3156644;28;20080;-69
2022/12/26 05:31:09;;;;;;;24.30;11.20;;;;;;;4.26;69.91;100835.88;3156754;28;20059;-70
2022/12/26 05:34:29;;;;;;;26.77;11.60;;;;;;;4.26;69.89;100835.88;3152703;28;20112;-69
2022/12/26 05:36:01;;;;;;;28.40;10.88;;;;;;;4.28;70.02;100838.44;3156942;28;20055;-69
2022/12/26 05:37:34;;;;;;;23.92;10.98;;;;;;;4.29;69.99;100833.28;3156846;28;20203;-70
2022/12/26 05:39:08;;;;;;;30.40;12.18;;;;;;;4.30;69.95;100841.88;3156802;28;20508;-69
2022/12/26 05:40:40;;;;;;;24.88;11.13;;;;;;;4.28;69.98;100836.72;3153539;28;20052;-69
2022/12/26 05:42:12;;;;;;;30.40;12.02;;;;;;;4.28;69.95;100838.44;3147773;28;20049;-69
2022/12/26 05:43:43;;;;;;;36.35;11.45;;;;;;;4.22;69.89;100829.00;3159292;28;20495;-68
2022/12/26 05:45:15;;;;;;;34.83;13.50;;;;;;;4.26;70.05;100835.88;3159158;28;20052;-69
2022/12/26 05:46:48;;;;;;;27.90;12.52;;;;;;;4.26;70.02;100840.16;3159108;28;20052;-68
2022/12/26 05:48:20;;;;;;;29.65;12.18;;;;;;;4.25;69.96;100838.44;3147812;28;20121;-69
2022/12/26 05:49:52;;;;;;;30.95;10.88;;;;;;;4.20;70.19;100835.03;3156982;28;20055;-69
2022/12/26 05:51:24;;;;;;;26.65;10.55;;;;;;;4.20;69.99;100838.47;3153826;28;20140;-69
2022/12/26 05:52:56;;;;;;;27.70;9.98;;;;;;;3.84;69.98;100793.84;3155792;28;20055;-69
2022/12/26 05:54:29;;;;;;;30.40;10.60;;;;;;;4.17;70.23;100841.06;3158741;28;20048;-69
2022/12/26 05:56:04;;;;;;;22.65;10.80;;;;;;;4.12;70.25;100835.06;3158773;28;20052;-69
2022/12/26 05:57:35;;;;;;;29.10;10.48;;;;;;;4.14;70.21;100843.66;3153945;28;20076;-69
2022/12/26 05:59:09;;;;;;;35.38;11.70;;;;;;;3.97;70.29;100817.06;3145075;28;20052;-69
2022/12/26 06:00:41;;;;;;;30.58;11.20;;;;;;;4.11;70.39;100841.06;3152150;28;20048;-69
2022/12/26 06:02:13;;;;;;;23.05;11.10;;;;;;;4.02;70.52;100833.34;3156585;28;20051;-69
2022/12/26 06:03:48;;;;;;;23.27;10.57;;;;;;;4.02;70.43;100839.38;3145415;28;20079;-69
2022/12/26 06:05:20;;;;;;;25.10;10.65;;;;;;;3.94;70.48;100845.41;3141773;28;20044;-69
2022/12/26 06:06:55;;;;;;;26.98;10.70;;;;;;;3.87;70.68;100852.25;3158817;28;20101;-69
2022/12/26 06:08:27;;;;;;;27.23;10.75;;;;;;;3.79;70.86;100847.13;3158812;28;20127;-69
2022/12/26 06:10:00;;;;;;;31.48;11.63;;;;;;;3.74;70.79;100841.13;3157584;28;20076;-69
2022/12/26 06:11:31;;;;;;;27.52;10.77;;;;;;;3.76;70.95;100844.56;3158487;28;20052;-69
2022/12/26 06:13:02;;;;;;;25.35;10.98;;;;;;;3.75;70.95;100845.41;3158983;28;20089;-69
2022/12/26 06:14:34;;;;;;;33.20;12.82;;;;;;;3.76;70.93;100852.28;3158733;28;20060;-69
2022/12/26 06:16:06;;;;;;;30.90;12.30;;;;;;;3.74;71.12;100848.00;3151796;28;20055;-69
2022/12/26 06:17:39;;;;;;;28.38;12.40;;;;;;;3.74;71.07;100848.00;3155009;28;20049;-69
2022/12/26 06:19:10;;;;;;;27.27;12.27;;;;;;;3.80;71.24;100848.84;3152372;28;20437;-69
2022/12/26 06:20:41;;;;;;;30.92;13.35;;;;;;;3.91;71.38;100848.84;3156562;28;20048;-69
2022/12/26 06:22:13;;;;;;;31.27;14.20;;;;;;;4.02;71.30;100841.97;3159076;28;20052;-69
2022/12/26 06:23:45;;;;;;;26.88;12.05;;;;;;;4.13;71.27;100839.34;3158836;28;20048;-69
2022/12/26 06:25:18;;;;;;;26.55;13.23;;;;;;;4.31;71.07;100846.16;3158699;28;20048;-69
2022/12/26 06:26:50;;;;;;;26.63;12.07;;;;;;;4.42;70.81;100846.16;3158521;28;20040;-69
2022/12/26 06:28:22;;;;;;;29.13;13.60;;;;;;;4.12;70.50;100775.75;3158881;28;20048;-69
2022/12/26 06:29:53;;;;;;;28.80;12.13;;;;;;;4.53;70.21;100816.03;3158464;28;20055;-69
2022/12/26 06:31:26;;;;;;;29.65;13.15;;;;;;;4.78;69.95;100847.72;3158375;28;20044;-68
2022/12/26 06:32:57;;;;;;;25.58;11.95;;;;;;;4.91;69.55;100858.84;3154582;28;20500;-68
2022/12/26 06:34:29;;;;;;;27.90;12.85;;;;;;;5.00;69.27;100858.81;3158616;28;20432;-68
2022/12/26 06:36:05;;;;;;;33.60;12.50;;;;;;;5.12;69.18;100853.56;3158679;28;20112;-70
2022/12/26 06:37:37;;;;;;;30.73;13.75;;;;;;;5.27;69.07;100859.50;3158575;28;20047;-69
2022/12/26 06:39:09;;;;;;;27.27;12.40;;;;;;;5.42;68.95;100862.84;3158708;28;20477;-69
2022/12/26 06:40:41;;;;;;;31.55;13.50;;;;;;;5.56;68.86;100861.88;3158456;28;20048;-67
2022/12/26 06:42:13;;;;;;;23.25;11.70;;;;;;;5.73;68.67;100861.75;3158358;28;20052;-67
2022/12/26 06:43:46;;;;;;;26.30;11.98;;;;;;;5.83;68.45;100863.41;3158284;28;20070;-69
2022/12/26 06:45:17;;;;;;;27.67;11.85;;;;;;;6.04;68.00;100870.97;3158454;28;20825;-68
2022/12/26 06:46:49;;;;;;;28.92;12.48;;;;;;;6.21;67.77;100869.94;3154591;28;20110;-68
2022/12/26 06:48:20;;;;;;;32.95;11.93;;;;;;;6.28;67.24;100853.50;3157122;28;20421;-68
2022/12/26 06:49:52;;;;;;;23.40;10.93;;;;;;;6.52;66.42;100862.72;3158212;28;20069;-68
2022/12/26 06:51:25;;;;;;;31.02;11.55;;;;;;;6.67;66.01;100862.53;3152847;28;20061;-68
2022/12/26 06:52:57;;;;;;;26.65;10.90;;;;;;;6.78;65.21;100867.59;3154983;28;20134;-69
2022/12/26 06:54:28;;;;;;;25.10;11.68;;;;;;;6.83;64.63;100865.78;3158151;28;20119;-69
2022/12/26 06:56:08;;;;;;;25.88;10.85;;;;;;;6.92;63.99;100867.41;3158036;28;20378;-68
2022/12/26 06:57:39;;;;;;;28.15;11.32;;;;;;;7.09;64.01;100874.94;3155203;28;20055;-68
2022/12/26 06:59:11;;;;;;;26.70;10.93;;;;;;;7.24;63.96;100870.41;3149828;28;20048;-68
2022/12/26 07:00:43;;;;;;;24.60;11.00;;;;;;;7.40;63.80;100871.06;3152080;28;20120;-68
2022/12/26 07:02:15;;;;;;;32.97;10.57;;;;;;;7.55;63.61;100863.94;3153752;28;20437;-68
2022/12/26 07:03:47;;;;;;;22.42;10.80;;;;;;;7.77;63.30;100867.03;3158394;28;20047;-68
2022/12/26 07:05:19;;;;;;;26.88;11.77;;;;;;;8.03;63.13;100876.97;3157790;28;20440;-69
2022/12/26 07:06:51;;;;;;;24.25;10.18;;;;;;;8.23;62.34;100871.41;3153454;28;20044;-68
2022/12/26 07:08:22;;;;;;;22.10;10.65;;;;;;;8.35;62.12;100869.44;3158198;28;20048;-68
2022/12/26 07:09:54;;;;;;;26.73;11.77;;;;;;;8.49;61.91;100864.03;3158175;28;20136;-68
2022/12/26 07:11:28;;;;;;;29.20;11.05;;;;;;;8.68;61.70;100876.63;3157862;28;20455;-68
2022/12/26 07:12:59;;;;;;;28.90;10.38;;;;;;;8.91;61.22;100874.44;3158233;28;20109;-68
2022/12/26 07:14:31;;;;;;;25.80;11.38;;;;;;;9.20;60.96;100876.41;3158017;28;20062;-68
2022/12/26 07:16:03;;;;;;;25.80;10.50;;;;;;;9.50;60.14;100867.03;3154397;28;20045;-69
2022/12/26 07:17:35;;;;;;;24.25;11.23;;;;;;;9.80;59.62;100865.44;3157721;28;20105;-69
2022/12/26 07:19:08;;;;;;;30.13;11.48;;;;;;;10.15;58.83;100866.28;3153457;28;20101;-69
2022/12/26 07:20:39;;;;;;;30.50;11.85;;;;;;;10.50;57.73;100871.44;3156645;28;20051;-69
2022/12/26 07:22:11;;;;;;;23.35;10.55;;;;;;;10.74;56.15;100872.50;3157994;28;20052;-69
2022/12/26 07:23:43;;;;;;;23.92;10.60;;;;;;;10.96;55.59;100878.81;3157833;28;20043;-69
2022/12/26 07:25:15;;;;;;;25.80;12.50;;;;;;;10.99;55.11;100857.88;3158029;28;20124;-69
2022/12/26 07:26:49;;;;;;;25.90;12.65;;;;;;;11.19;53.91;100880.72;3158090;28;20044;-69
2022/12/26 07:28:21;;;;;;;25.77;12.77;;;;;;;11.35;53.83;100888.94;3157901;28;20040;-70
2022/12/26 07:29:53;;;;;;;36.78;14.85;;;;;;;11.57;53.78;100889.97;3157981;28;20200;-69
2022/12/26 07:31:26;;;;;;;31.35;13.18;;;;;;;11.86;52.80;100882.13;3154307;28;20044;-69
2022/12/26 07:32:57;;;;;;;31.10;14.35;;;;;;;12.20;52.05;100880.06;3157642;28;20535;-70
2022/12/26 07:34:29;;;;;;;38.40;14.25;;;;;;;12.57;51.76;100891.84;3158088;28;20051;-69
2022/12/26 07:36:01;;;;;;;32.85;15.13;;;;;;;12.88;50.76;100888.94;3157653;28;20044;-69
2022/12/26 07:37:33;;;;;;;35.97;14.18;;;;;;;13.00;50.00;100869.34;3157873;28;20565;-69
2022/12/26 07:39:05;;;;;;;34.33;14.45;;;;;;;13.35;49.42;100880.25;3157763;28;20482;-69
2022/12/26 07:40:36;;;;;;;29.02;14.27;;;;;;;13.50;49.04;100878.78;3157916;28;20056;-70
2022/12/26 07:42:09;;;;;;;28.48;14.43;;;;;;;13.58;48.69;100869.72;3157823;28;20191;-69
2022/12/26 07:43:40;;;;;;;32.75;14.93;;;;;;;13.89;47.79;100895.47;3158171;28;20059;-68
2022/12/26 07:45:12;;;;;;;29.65;14.02;;;;;;;14.07;47.69;100896.47;3153129;28;20044;-69
2022/12/26 07:46:42;;;;;;;38.88;14.88;;;;;;;14.28;47.02;100893.84;3156658;28;20052;-68
2022/12/26 07:48:14;;;;;;;32.42;14.00;;;;;;;14.48;46.74;100900.84;3157321;28;20108;-70
2022/12/26 07:49:46;;;;;;;27.95;13.15;;;;;;;14.65;46.19;100897.53;3149607;28;20118;-68
2022/12/26 07:51:18;;;;;;;36.38;14.98;;;;;;;14.72;45.69;100885.84;3149473;28;20049;-69
2022/12/26 07:52:50;;;;;;;36.47;16.40;;;;;;;14.86;45.46;100890.47;3153104;28;20048;-70
2022/12/26 07:54:22;;;;;;;35.53;16.67;;;;;;;14.98;44.88;100898.59;3157474;28;20074;-69
2022/12/26 07:55:58;;;;;;;38.67;17.15;;;;;;;15.12;44.60;100905.84;3152074;28;20060;-68
2022/12/26 07:57:31;;;;;;;34.85;16.17;;;;;;;15.14;43.73;100905.75;3153675;28;20039;-69
2022/12/26 07:59:03;;;;;;;27.52;13.98;;;;;;;15.02;43.45;100909.81;3155526;28;20052;-69
2022/12/26 08:00:34;;;;;;;29.05;13.88;;;;;;;14.83;43.15;100899.31;3150353;28;20105;-72
2022/12/26 08:02:06;;;;;;;31.90;14.13;;;;;;;14.67;43.08;100895.66;3146200;28;20555;-69
2022/12/26 08:03:37;;;;;;;30.60;14.38;;;;;;;14.57;42.91;100906.56;3147246;28;20048;-70
2022/12/26 08:05:09;;;;;;;24.27;13.65;;;;;;;14.49;43.38;100903.41;3157985;28;20125;-70
2022/12/26 08:06:41;;;;;;;35.17;15.55;;;;;;;14.64;43.72;100912.41;3157728;28;20052;-68
2022/12/26 08:08:13;;;;;;;33.92;15.93;;;;;;;14.84;43.75;100897.53;3157573;28;20048;-70
2022/12/26 08:09:45;;;;;;;37.88;17.10;;;;;;;15.16;43.38;100902.16;3157606;28;20059;-70
2022/12/26 08:11:19;;;;;;;31.30;16.83;;;;;;;15.44;42.70;100903.50;3157829;28;20071;-70
2022/12/26 08:12:53;;;;;;;28.33;13.65;;;;;;;15.61;42.19;100900.88;3157745;28;20076;-70
2022/12/26 08:14:25;;;;;;;34.03;13.98;;;;;;;15.56;41.64;100878.41;3154445;28;20056;-71
2022/12/26 08:15:56;;;;;;;32.03;15.43;;;;;;;15.75;41.45;100891.53;3154330;28;20440;-69
2022/12/26 08:17:30;;;;;;;28.52;14.13;;;;;;;15.83;41.27;100899.88;3144929;28;20555;-69
2022/12/26 08:19:02;;;;;;;30.23;13.93;;;;;;;15.96;41.32;100898.34;3151455;28;20505;-70
2022/12/26 08:20:34;;;;;;;31.92;13.77;;;;;;;16.17;41.08;100899.03;3154060;28;20144;-71
2022/12/26 08:22:06;;;;;;;28.60;13.45;;;;;;;16.47;40.96;100912.38;3157192;28;20579;-70
2022/12/26 08:23:38;;;;;;;24.77;12.57;;;;;;;16.69;40.17;100916.53;3157128;28;20486;-70
2022/12/26 08:25:10;;;;;;;28.52;12.95;;;;;;;16.76;39.90;100912.66;3157470;28;20052;-69
2022/12/26 08:26:42;;;;;;;29.58;13.13;;;;;;;16.83;39.69;100900.88;3157136;28;20097;-69
2022/12/26 08:28:15;;;;;;;28.95;12.63;;;;;;;16.90;39.79;100894.34;3157205;28;20081;-69
2022/12/26 08:29:48;;;;;;;21.90;9.80;;;;;;;17.14;39.75;100892.16;3153625;28;20062;-69
2022/12/26 08:31:20;;;;;;;21.10;8.40;;;;;;;17.04;38.58;100848.88;3157266;28;20487;-68
2022/12/26 08:32:52;;;;;;;19.67;8.80;;;;;;;17.11;38.40;100888.84;3157074;28;20044;-68
2022/12/26 08:34:24;;;;;;;25.13;8.90;;;;;;;17.10;38.66;100889.81;3157121;28;20056;-69
2022/12/26 08:35:56;;;;;;;14.40;7.60;;;;;;;17.08;38.61;100883.75;3157183;28;20484;-70
2022/12/26 08:37:28;;;;;;;16.52;7.65;;;;;;;17.29;38.65;100888.69;3157544;28;20134;-69
2022/12/26 08:39:00;;;;;;;34.03;8.70;;;;;;;17.47;38.40;100888.56;3157273;28;20128;-71
2022/12/26 08:40:32;;;;;;;16.30;6.60;;;;;;;16.82;37.70;100776.38;3157100;28;20535;-68
2022/12/26 08:42:04;;;;;;;11.48;6.45;;;;;;;17.27;38.01;100877.41;3157452;28;20048;-68
2022/12/26 08:43:37;;;;;;;12.65;5.32;;;;;;;17.16;38.07;100863.97;3153661;28;20552;-68
2022/12/26 08:45:09;;;;;;;8.88;4.57;;;;;;;17.34;37.88;100877.06;3156035;28;20052;-68
2022/12/26 08:46:41;;;;;;;13.82;5.78;;;;;;;17.48;37.68;100877.09;3156964;28;20109;-69
2022/12/26 08:48:14;;;;;;;14.43;5.95;;;;;;;17.54;37.69;100876.78;3156864;28;20043;-68
2022/12/26 08:49:45;;;;;;;11.52;5.75;;;;;;;17.58;37.59;100875.66;3156815;28;20503;-68
2022/12/26 08:51:20;;;;;;;13.52;5.80;;;;;;;17.65;37.46;100878.78;3152136;28;20044;-68
2022/12/26 08:52:52;;;;;;;12.90;6.38;;;;;;;17.56;37.04;100863.50;3152728;28;20120;-69
2022/12/26 08:54:24;;;;;;;21.55;8.13;;;;;;;17.45;37.43;100867.63;3157168;28;20040;-69
2022/12/26 08:55:56;;;;;;;17.35;6.78;;;;;;;17.50;37.20;100864.69;3156881;28;20532;-69
2022/12/26 08:57:28;;;;;;;17.95;7.55;;;;;;;17.54;37.11;100868.00;3152977;28;20047;-69
2022/12/26 08:59:01;;;;;;;16.35;6.05;;;;;;;17.60;37.22;100863.25;3151673;28;20048;-68
2022/12/26 09:00:33;;;;;;;18.60;6.82;;;;;;;17.77;37.03;100867.53;3157153;28;20098;-69
2022/12/26 09:02:05;;;;;;;13.73;6.00;;;;;;;17.90;36.84;100865.06;3157127;28;20044;-68
2022/12/26 09:03:37;;;;;;;14.35;6.47;;;;;;;17.94;36.72;100864.78;3156941;28;20047;-67
2022/12/26 09:05:09;;;;;;;15.85;6.60;;;;;;;17.98;36.69;100856.69;3157392;28;20048;-68
2022/12/26 09:06:41;;;;;;;19.30;8.10;;;;;;;18.11;36.52;100857.69;3156686;28;20055;-68
2022/12/26 09:08:13;;;;;;;12.63;6.50;;;;;;;18.31;36.55;100857.34;3156740;28;20531;-68
2022/12/26 09:09:46;;;;;;;17.80;7.43;;;;;;;18.41;36.26;100840.00;3156725;28;20109;-68
2022/12/26 09:11:21;;;;;;;19.63;7.20;;;;;;;18.68;36.10;100852.44;3157192;28;20296;-69
2022/12/26 09:12:53;;;;;;;14.68;6.80;;;;;;;18.84;35.60;100849.69;3153622;28;20056;-68
2022/12/26 09:14:26;;;;;;;11.48;6.43;;;;;;;18.99;35.23;100846.09;3156704;28;20051;-69